Time;durP1;ratioP1;P1;durP2;ratioP2;P2;SDS_P1;SDS_P2;PMS_P1;PMS_P2;Temp;Humidity;BMP_temperature;BMP_pressure;BME280_temperature;BME280_humidity;BME280_pressure;Samples;Min_cycle;Max_cycle;Signal;HPM_P1;HPM_P2
2023/09/21 00:01:19;;;;;;;2.10;1.40;;;;;;;25.76;50.78;101810.31;106721;1256;22523;-53
2023/09/21 00:03:48;;;;;;;2.80;1.70;;;;;;;25.74;50.75;101808.52;106725;1256;22534;-53
2023/09/21 00:06:20;;;;;;;3.10;1.90;;;;;;;25.70;50.67;101804.72;106652;1256;22523;-53
2023/09/21 00:08:49;;;;;;;4.50;2.00;;;;;;;25.64;50.81;101805.28;106756;1259;22570;-53
2023/09/21 00:11:18;;;;;;;1.60;1.50;;;;;;;25.63;51.00;101804.69;106451;1267;22549;-53
2023/09/21 00:13:46;;;;;;;1.80;1.70;;;;;;;25.61;50.96;101804.62;106700;1257;22537;-53
2023/09/21 00:16:18;;;;;;;1.70;1.60;;;;;;;25.59;51.04;101805.13;106584;1261;22602;-53
2023/09/21 00:18:46;;;;;;;2.10;1.80;;;;;;;25.56;50.93;101799.46;106932;1256;22527;-54
2023/09/21 00:21:15;;;;;;;4.10;1.60;;;;;;;25.53;51.09;101799.99;106740;1259;22522;-54
2023/09/21 00:23:47;;;;;;;4.00;1.70;;;;;;;25.50;51.06;101799.52;106748;1269;22573;-54
2023/09/21 00:26:16;;;;;;;2.60;1.90;;;;;;;25.48;51.19;101793.80;106730;1256;22999;-54
2023/09/21 00:28:46;;;;;;;2.20;1.70;;;;;;;25.46;51.05;101793.58;106725;1256;22522;-54
2023/09/21 00:31:14;;;;;;;3.00;1.70;;;;;;;25.44;51.10;101787.88;106912;1256;22523;-54
2023/09/21 00:33:42;;;;;;;2.10;1.80;;;;;;;25.43;51.19;101788.98;106709;1256;22542;-54
2023/09/21 00:36:13;;;;;;;2.40;1.70;;;;;;;25.42;51.15;101787.48;106739;1259;22527;-54
2023/09/21 00:38:41;;;;;;;1.80;1.60;;;;;;;25.42;51.24;101785.70;106866;1256;22533;-54
2023/09/21 00:41:09;;;;;;;3.50;2.30;;;;;;;25.42;51.37;101789.60;106772;1259;22513;-54
2023/09/21 00:43:37;;;;;;;3.50;2.10;;;;;;;25.42;51.41;101783.21;106684;1257;22527;-54
2023/09/21 00:46:06;;;;;;;4.50;2.00;;;;;;;25.41;51.44;101781.45;106763;1256;23000;-54
2023/09/21 00:48:38;;;;;;;2.20;2.00;;;;;;;25.41;51.57;101779.39;106574;1258;22544;-54
2023/09/21 00:51:08;;;;;;;3.50;1.90;;;;;;;25.40;51.44;101776.03;106635;1259;24688;-54
2023/09/21 00:53:39;;;;;;;3.40;1.60;;;;;;;25.39;51.60;101775.35;106752;1273;22554;-54
2023/09/21 00:56:11;;;;;;;2.20;1.70;;;;;;;25.38;51.57;101776.48;106453;1261;22530;-53
2023/09/21 00:58:45;;;;;;;5.40;2.10;;;;;;;25.38;51.66;101779.70;106820;1269;22534;-54
2023/09/21 01:01:23;;;;;;;1.80;1.60;;;;;;;25.37;51.56;101774.27;106727;1256;22528;-53
2023/09/21 01:03:53;;;;;;;4.90;2.00;;;;;;;25.36;51.73;101772.36;106899;1255;25389;-54
2023/09/21 01:06:23;;;;;;;2.30;1.50;;;;;;;25.35;51.76;101772.59;106703;1256;22598;-54
2023/09/21 01:08:51;;;;;;;2.80;1.70;;;;;;;25.34;51.74;101771.61;106767;1256;24340;-53
2023/09/21 01:11:20;;;;;;;2.40;1.70;;;;;;;25.33;51.79;101770.29;106731;1269;22553;-54
2023/09/21 01:13:48;;;;;;;2.60;1.70;;;;;;;25.31;51.74;101770.75;106773;1270;22523;-54
2023/09/21 01:16:17;;;;;;;2.30;2.00;;;;;;;25.30;51.84;101774.20;106776;1257;25280;-54
2023/09/21 01:18:46;;;;;;;2.10;1.90;;;;;;;25.28;51.67;101769.89;106508;1259;22526;-54
2023/09/21 01:21:16;;;;;;;2.20;2.00;;;;;;;25.26;51.56;101768.44;106721;1256;22792;-54
2023/09/21 01:23:49;;;;;;;2.40;1.60;;;;;;;25.24;51.33;101767.34;106585;1259;22524;-54
2023/09/21 01:26:18;;;;;;;3.00;1.80;;;;;;;25.22;51.52;101767.14;106484;1269;22524;-54
2023/09/21 01:28:49;;;;;;;2.30;1.80;;;;;;;25.20;51.39;101764.05;106473;1262;25335;-54
2023/09/21 01:31:17;;;;;;;1.70;1.60;;;;;;;25.20;51.26;101763.35;106731;1270;22601;-54
2023/09/21 01:33:46;;;;;;;1.80;1.70;;;;;;;25.19;51.18;101760.20;106735;1253;24225;-53
2023/09/21 01:36:15;;;;;;;3.00;1.70;;;;;;;25.18;51.08;101756.89;106801;1256;22533;-54
2023/09/21 01:38:46;;;;;;;1.70;1.60;;;;;;;25.18;50.88;101757.67;106735;1256;23994;-54
2023/09/21 01:41:17;;;;;;;2.00;1.70;;;;;;;25.15;50.88;101756.27;106709;1275;22569;-54
2023/09/21 01:43:44;;;;;;;3.10;1.80;;;;;;;25.12;50.79;101762.13;106721;1267;25336;-55
2023/09/21 01:46:21;;;;;;;2.70;1.70;;;;;;;25.08;50.86;101759.73;106446;1260;22576;-54
2023/09/21 01:48:51;;;;;;;2.20;1.60;;;;;;;25.04;50.86;101757.81;106695;1260;22623;-54
2023/09/21 01:51:20;;;;;;;2.50;1.60;;;;;;;25.01;50.97;101759.13;106775;1253;24201;-55
2023/09/21 01:53:49;;;;;;;2.50;1.40;;;;;;;24.98;51.16;101752.42;106789;1260;22536;-55
2023/09/21 01:56:17;;;;;;;2.10;1.50;;;;;;;24.94;51.32;101751.07;106829;1256;22527;-55
2023/09/21 01:58:45;;;;;;;3.00;2.40;;;;;;;24.91;51.31;101747.70;106586;1273;22540;-54
2023/09/21 02:01:16;;;;;;;2.60;1.90;;;;;;;24.91;51.43;101747.21;106793;1257;22524;-55
2023/09/21 02:03:45;;;;;;;2.30;1.40;;;;;;;24.89;51.46;101747.01;106692;1257;25235;-54
2023/09/21 02:06:13;;;;;;;2.50;1.80;;;;;;;24.86;51.35;101748.23;106693;1263;22600;-54
2023/09/21 02:08:41;;;;;;;1.90;1.60;;;;;;;24.84;51.53;101747.63;106788;1259;22580;-54
2023/09/21 02:11:10;;;;;;;3.60;1.40;;;;;;;24.82;51.48;101743.35;106836;1276;22541;-55
2023/09/21 02:13:38;;;;;;;2.80;1.70;;;;;;;24.81;51.49;101746.27;106693;1257;22535;-53
2023/09/21 02:16:06;;;;;;;1.60;1.50;;;;;;;24.79;51.50;101749.56;106656;1259;22642;-53
2023/09/21 02:18:34;;;;;;;2.70;1.70;;;;;;;24.78;51.31;101750.92;106827;1257;22527;-54
2023/09/21 02:21:02;;;;;;;2.00;1.50;;;;;;;24.76;51.35;101748.70;106696;1260;22523;-53
2023/09/21 02:23:30;;;;;;;3.00;1.70;;;;;;;24.75;51.40;101747.93;106743;1256;24208;-53
2023/09/21 02:25:58;;;;;;;3.90;1.50;;;;;;;24.73;51.50;101748.89;106732;1267;22519;-53
2023/09/21 02:28:26;;;;;;;3.20;1.60;;;;;;;24.72;51.49;101745.95;106654;1269;22527;-54
2023/09/21 02:30:53;;;;;;;1.90;1.40;;;;;;;24.71;51.70;101747.95;106518;1263;22520;-53
2023/09/21 02:33:22;;;;;;;1.60;1.50;;;;;;;24.70;51.69;101746.45;106792;1260;25073;-54
2023/09/21 02:35:50;;;;;;;2.00;1.60;;;;;;;24.68;51.52;101747.29;106364;1262;22522;-53
2023/09/21 02:38:20;;;;;;;2.10;1.50;;;;;;;24.67;51.54;101747.47;106721;1256;22592;-53
2023/09/21 02:40:48;;;;;;;4.50;1.40;;;;;;;24.66;51.42;101745.96;106844;1258;22527;-53
2023/09/21 02:43:17;;;;;;;1.60;1.50;;;;;;;24.65;51.48;101744.42;106732;1264;24362;-53
2023/09/21 02:45:45;;;;;;;2.20;1.60;;;;;;;24.64;51.52;101741.86;106812;1256;22525;-53
2023/09/21 02:48:15;;;;;;;2.80;1.70;;;;;;;24.62;51.59;101736.46;106441;1260;22517;-54
2023/09/21 02:50:48;;;;;;;1.60;1.50;;;;;;;24.61;51.83;101735.98;106814;1272;25484;-53
2023/09/21 02:53:17;;;;;;;4.80;1.70;;;;;;;24.60;51.72;101736.08;106825;1264;24690;-53
2023/09/21 02:55:50;;;;;;;2.00;1.40;;;;;;;24.59;51.80;101737.36;106744;1257;22622;-54
2023/09/21 02:58:19;;;;;;;1.50;1.40;;;;;;;24.64;51.82;101738.13;106483;1263;22527;-53
2023/09/21 03:00:52;;;;;;;2.30;1.70;;;;;;;24.69;51.61;101739.02;106454;1270;22520;-53
2023/09/21 03:03:21;;;;;;;2.70;1.50;;;;;;;24.70;51.41;101740.58;106533;1259;22575;-53
2023/09/21 03:05:51;;;;;;;1.90;1.60;;;;;;;24.69;51.36;101744.02;106448;1267;25230;-53
2023/09/21 03:08:22;;;;;;;3.50;1.70;;;;;;;24.68;51.43;101745.14;106470;1260;22565;-53
2023/09/21 03:10:55;;;;;;;1.80;1.60;;;;;;;24.66;51.52;101753.45;106564;1257;25344;-54
2023/09/21 03:13:23;;;;;;;3.60;1.50;;;;;;;24.64;51.56;101753.19;106265;1263;22533;-53
2023/09/21 03:15:53;;;;;;;1.70;1.60;;;;;;;24.63;51.62;101753.45;106623;1267;22539;-53
2023/09/21 03:18:24;;;;;;;1.50;1.40;;;;;;;24.61;51.63;101751.80;106473;1270;22546;-55
2023/09/21 03:20:52;;;;;;;2.70;1.70;;;;;;;24.61;51.90;101755.91;106634;1259;24103;-53
2023/09/21 03:23:21;;;;;;;2.40;1.90;;;;;;;24.60;51.98;101754.90;106559;1259;22621;-53
2023/09/21 03:25:50;;;;;;;3.00;1.80;;;;;;;24.59;52.36;101756.19;106504;1260;25443;-53
2023/09/21 03:28:19;;;;;;;2.80;1.90;;;;;;;24.58;52.39;101755.02;106329;1262;24359;-53
2023/09/21 03:30:49;;;;;;;4.00;2.20;;;;;;;24.55;52.63;101751.66;106754;1259;22618;-53
2023/09/21 03:33:18;;;;;;;1.80;1.60;;;;;;;24.51;52.76;101751.25;106642;1256;23916;-53
2023/09/21 03:35:47;;;;;;;5.60;1.80;;;;;;;24.49;52.94;101751.36;106735;1272;22632;-53
2023/09/21 03:38:18;;;;;;;5.00;2.50;;;;;;;24.53;53.03;101752.52;106604;1267;22527;-53
2023/09/21 03:40:48;;;;;;;5.40;2.10;;;;;;;24.54;52.95;101751.91;106777;1256;22547;-53
2023/09/21 03:43:18;;;;;;;4.30;2.20;;;;;;;24.54;53.04;101753.13;106542;1260;23915;-52
2023/09/21 03:45:47;;;;;;;4.70;2.30;;;;;;;24.54;52.98;101745.88;106690;1257;26195;-53
2023/09/21 03:48:16;;;;;;;3.10;2.20;;;;;;;24.54;53.08;101747.65;106709;1266;22523;-53
2023/09/21 03:50:44;;;;;;;5.30;1.90;;;;;;;24.54;53.08;101747.51;106723;1271;22520;-53
2023/09/21 03:53:14;;;;;;;4.00;2.10;;;;;;;24.51;53.20;101748.05;106837;1256;22538;-53
2023/09/21 03:55:42;;;;;;;2.30;2.00;;;;;;;24.41;53.40;101750.48;106779;1266;25331;-53
2023/09/21 03:58:11;;;;;;;1.70;1.60;;;;;;;24.34;53.41;101746.33;106890;1263;24203;-53
2023/09/21 04:00:38;;;;;;;4.50;1.90;;;;;;;24.33;53.42;101750.83;106728;1263;22530;-53
2023/09/21 04:03:10;;;;;;;3.70;1.90;;;;;;;24.32;53.42;101747.13;106679;1262;22531;-53
2023/09/21 04:06:06;;;;;;;2.50;1.60;;;;;;;24.32;53.22;101750.66;106727;1270;22521;-53
2023/09/21 04:08:34;;;;;;;2.00;1.80;;;;;;;24.33;53.22;101749.38;106707;1256;22538;-53
2023/09/21 04:11:02;;;;;;;4.50;2.10;;;;;;;24.34;53.21;101750.95;106385;1260;22520;-53
2023/09/21 04:13:30;;;;;;;3.00;2.10;;;;;;;24.34;53.17;101749.48;106647;1260;22624;-53
2023/09/21 04:15:58;;;;;;;2.20;1.70;;;;;;;24.36;53.24;101748.65;106691;1264;25394;-53
2023/09/21 04:18:26;;;;;;;2.10;1.70;;;;;;;24.38;53.39;101746.73;106662;1266;26149;-54
2023/09/21 04:20:54;;;;;;;1.90;1.80;;;;;;;24.40;53.49;101751.92;106693;1260;22563;-53
2023/09/21 04:23:43;;;;;;;2.10;1.90;;;;;;;24.43;53.49;101757.45;106472;1260;22539;-54
2023/09/21 04:26:12;;;;;;;2.50;1.90;;;;;;;24.44;53.59;101757.16;106762;1266;24205;-53
2023/09/21 04:28:40;;;;;;;2.60;2.00;;;;;;;24.46;53.66;101757.41;106762;1256;22606;-53
2023/09/21 04:31:13;;;;;;;2.40;1.70;;;;;;;24.48;53.69;101760.44;106757;1260;25366;-53
2023/09/21 04:33:42;;;;;;;3.50;1.70;;;;;;;24.51;53.80;101763.11;106771;1263;22580;-53
2023/09/21 04:36:10;;;;;;;2.20;1.20;;;;;;;24.53;53.78;101762.08;106769;1263;22600;-53
2023/09/21 04:38:38;;;;;;;1.80;1.70;;;;;;;24.56;54.01;101762.63;106759;1257;22578;-53
2023/09/21 04:41:11;;;;;;;2.00;1.80;;;;;;;24.58;54.08;101757.83;106777;1261;22627;-53
2023/09/21 04:43:39;;;;;;;3.60;1.90;;;;;;;24.62;54.13;101759.03;106823;1257;22535;-53
2023/09/21 04:46:09;;;;;;;4.20;2.40;;;;;;;24.66;54.26;101763.21;106819;1255;22531;-53
2023/09/21 04:48:39;;;;;;;3.70;1.90;;;;;;;24.69;54.32;101763.86;106556;1260;25342;-54
2023/09/21 04:51:12;;;;;;;2.80;1.50;;;;;;;24.73;54.38;101764.17;106385;1260;22573;-53
2023/09/21 04:53:42;;;;;;;1.90;1.70;;;;;;;24.77;54.40;101763.42;106510;1260;22549;-53
2023/09/21 04:56:10;;;;;;;2.70;2.00;;;;;;;24.80;54.54;101761.04;106467;1267;22554;-53
2023/09/21 04:58:38;;;;;;;2.30;1.80;;;;;;;24.84;54.50;101759.40;106290;1264;22530;-53
2023/09/21 05:01:10;;;;;;;2.80;1.80;;;;;;;24.88;54.42;101759.48;106362;1270;22637;-54
2023/09/21 05:03:39;;;;;;;2.20;1.60;;;;;;;24.92;54.23;101762.23;106499;1259;22527;-53
2023/09/21 05:06:07;;;;;;;3.00;1.70;;;;;;;24.96;53.71;101764.23;106468;1264;22524;-54
2023/09/21 05:08:36;;;;;;;3.30;1.60;;;;;;;25.01;52.85;101766.24;106412;1269;22583;-56
2023/09/21 05:11:04;;;;;;;5.50;1.70;;;;;;;25.05;52.44;101767.02;106599;1269;24228;-56
2023/09/21 05:13:32;;;;;;;2.10;1.90;;;;;;;25.10;52.42;101766.88;106651;1273;22529;-55
2023/09/21 05:16:01;;;;;;;3.00;1.60;;;;;;;25.16;52.33;101762.73;106685;1270;22532;-55
2023/09/21 05:18:30;;;;;;;2.80;1.60;;;;;;;25.24;52.29;101768.39;106643;1269;22564;-55
2023/09/21 05:20:58;;;;;;;5.40;1.90;;;;;;;25.31;52.16;101773.25;106781;1260;22581;-56
2023/09/21 05:23:26;;;;;;;3.70;1.60;;;;;;;25.37;51.96;101775.53;106305;1271;24265;-55
2023/09/21 05:25:56;;;;;;;3.60;1.80;;;;;;;25.44;51.95;101781.64;106778;1260;22531;-54
2023/09/21 05:28:24;;;;;;;2.40;1.70;;;;;;;25.50;51.84;101781.36;106880;1254;25501;-54
2023/09/21 05:30:54;;;;;;;3.10;1.80;;;;;;;25.57;51.68;101781.10;106716;1267;22562;-54
2023/09/21 05:33:21;;;;;;;3.80;1.50;;;;;;;25.63;51.60;101781.92;106397;1254;474322;-54
2023/09/21 05:35:51;;;;;;;2.20;1.60;;;;;;;25.66;51.26;101786.50;106804;1256;22576;-54
2023/09/21 05:38:19;;;;;;;1.80;1.50;;;;;;;25.66;50.71;101783.64;106718;1257;22560;-54
2023/09/21 05:40:47;;;;;;;4.60;1.90;;;;;;;25.67;50.42;101787.13;106783;1257;22562;-54
2023/09/21 05:43:15;;;;;;;4.20;2.10;;;;;;;25.68;50.10;101791.20;106732;1255;22526;-55
2023/09/21 05:45:42;;;;;;;1.50;1.40;;;;;;;25.69;49.53;101785.23;106469;1258;25226;-55
2023/09/21 05:48:15;;;;;;;2.00;1.80;;;;;;;25.69;49.23;101790.77;106722;1254;22636;-54
2023/09/21 05:50:43;;;;;;;3.40;1.80;;;;;;;25.68;49.83;101785.09;106729;1258;22546;-54
2023/09/21 05:53:11;;;;;;;3.80;1.60;;;;;;;25.69;50.10;101793.05;105981;1254;1003577;-54
2023/09/21 05:55:40;;;;;;;2.90;2.30;;;;;;;25.72;50.25;101794.48;106680;1257;22532;-54
2023/09/21 05:58:08;;;;;;;2.60;1.60;;;;;;;25.72;50.25;101795.50;106862;1261;25318;-54
2023/09/21 06:00:35;;;;;;;2.10;1.70;;;;;;;25.75;50.03;101798.17;106385;1260;22565;-54
2023/09/21 06:03:03;;;;;;;1.30;1.20;;;;;;;25.76;49.52;101791.48;106450;1267;22526;-54
2023/09/21 06:05:32;;;;;;;3.00;1.50;;;;;;;25.81;49.18;101795.60;106502;1267;22528;-54
2023/09/21 06:07:59;;;;;;;1.80;1.30;;;;;;;25.85;49.15;101797.65;106686;1257;22535;-55
2023/09/21 06:10:30;;;;;;;1.50;1.40;;;;;;;25.87;49.37;101799.80;106625;1260;24199;-54
2023/09/21 06:12:59;;;;;;;1.80;1.30;;;;;;;25.91;49.62;101801.15;106749;1269;23251;-54
2023/09/21 06:15:27;;;;;;;1.90;1.60;;;;;;;25.97;49.90;101803.08;106608;1270;22569;-54
2023/09/21 06:17:55;;;;;;;1.90;1.50;;;;;;;26.04;50.00;101806.48;106762;1257;22531;-54
2023/09/21 06:20:23;;;;;;;1.80;1.50;;;;;;;26.14;49.99;101801.18;106654;1256;22540;-54
2023/09/21 06:22:50;;;;;;;2.00;1.40;;;;;;;26.23;50.01;101803.34;106727;1257;24191;-54
2023/09/21 06:25:20;;;;;;;1.80;1.40;;;;;;;26.35;50.17;101801.98;106342;1262;25268;-54
2023/09/21 06:27:47;;;;;;;1.90;1.80;;;;;;;26.47;50.63;101800.89;106849;1257;22530;-54
2023/09/21 06:30:15;;;;;;;1.90;1.20;;;;;;;26.56;51.15;101799.52;106647;1257;25284;-54
2023/09/21 06:32:44;;;;;;;1.60;1.40;;;;;;;26.63;51.65;101797.08;106514;1267;23199;-54
2023/09/21 06:35:15;;;;;;;1.90;1.50;;;;;;;26.69;51.63;101798.77;106785;1256;22581;-54
2023/09/21 06:37:43;;;;;;;1.70;1.60;;;;;;;26.75;51.73;101799.08;106574;1257;25330;-54
2023/09/21 06:40:11;;;;;;;2.70;1.60;;;;;;;26.80;51.91;101798.30;106746;1255;22633;-54
2023/09/21 06:42:38;;;;;;;2.00;1.50;;;;;;;26.87;52.17;101800.85;106495;1261;25343;-54
2023/09/21 06:45:07;;;;;;;2.20;1.60;;;;;;;26.94;52.12;101805.45;106549;1270;22592;-54
2023/09/21 06:47:35;;;;;;;1.70;1.60;;;;;;;27.01;52.21;101805.45;106660;1272;22531;-54
2023/09/21 06:50:07;;;;;;;1.50;1.40;;;;;;;27.11;52.12;101802.79;106657;1257;25354;-54
2023/09/21 06:52:35;;;;;;;1.70;1.50;;;;;;;27.24;52.04;101805.33;106628;1275;22572;-54
2023/09/21 06:55:05;;;;;;;1.80;1.60;;;;;;;27.41;51.73;101803.08;106840;1257;22531;-55
2023/09/21 06:57:34;;;;;;;2.90;1.20;;;;;;;27.61;51.32;101802.75;106690;1270;22661;-54
2023/09/21 07:00:08;;;;;;;2.50;1.20;;;;;;;27.77;50.86;101799.69;106803;1267;23074;-55
2023/09/21 07:02:36;;;;;;;1.30;1.20;;;;;;;27.96;50.22;101800.91;106671;1253;24212;-55
2023/09/21 07:05:04;;;;;;;1.50;1.40;;;;;;;28.05;50.00;101804.14;106537;1267;23900;-54
2023/09/21 07:07:32;;;;;;;1.60;1.40;;;;;;;28.14;49.85;101807.73;106589;1274;22526;-54
2023/09/21 07:10:00;;;;;;;1.40;1.30;;;;;;;28.23;49.66;101808.95;106675;1270;22646;-54
2023/09/21 07:12:28;;;;;;;2.20;1.20;;;;;;;28.31;49.33;101812.04;106773;1257;22605;-55
2023/09/21 07:14:58;;;;;;;1.70;1.50;;;;;;;28.38;49.11;101807.05;106993;1257;22543;-54
2023/09/21 07:17:27;;;;;;;1.60;1.40;;;;;;;28.44;48.65;101806.92;106975;1254;22512;-55
2023/09/21 07:19:54;;;;;;;2.30;1.60;;;;;;;28.49;48.45;101809.54;106614;1261;25293;-54
2023/09/21 07:22:22;;;;;;;3.70;1.60;;;;;;;28.53;48.52;101812.91;106696;1270;22624;-55
2023/09/21 07:24:50;;;;;;;3.00;1.80;;;;;;;28.59;48.31;101815.02;106950;1261;22527;-55
2023/09/21 07:27:17;;;;;;;2.60;1.60;;;;;;;28.62;48.08;101817.41;106635;1267;23909;-55
2023/09/21 07:29:45;;;;;;;1.50;1.40;;;;;;;28.63;48.00;101816.46;106700;1272;25365;-55
2023/09/21 07:32:13;;;;;;;1.40;1.30;;;;;;;28.63;47.80;101810.36;107011;1261;22517;-55
2023/09/21 07:34:41;;;;;;;1.90;1.60;;;;;;;28.62;47.68;101808.30;106847;1260;22530;-55
2023/09/21 07:37:12;;;;;;;2.00;1.70;;;;;;;28.63;47.69;101810.02;106868;1253;22565;-55
2023/09/21 07:39:40;;;;;;;2.20;1.40;;;;;;;28.61;47.87;101808.77;106752;1269;22526;-55
2023/09/21 07:42:09;;;;;;;1.70;1.20;;;;;;;28.56;48.01;101810.60;107077;1262;22534;-55
2023/09/21 07:44:37;;;;;;;2.00;1.40;;;;;;;28.57;47.88;101817.86;107015;1257;22522;-55
2023/09/21 07:47:07;;;;;;;2.10;1.50;;;;;;;28.57;47.91;101813.58;106910;1261;23893;-55
2023/09/21 07:49:35;;;;;;;3.10;1.70;;;;;;;28.56;47.50;101814.16;106719;1275;22526;-56
2023/09/21 07:52:03;;;;;;;2.10;1.80;;;;;;;28.55;47.53;101808.84;106835;1267;25349;-55
2023/09/21 07:54:33;;;;;;;2.10;1.40;;;;;;;28.56;47.22;101816.32;107018;1267;22646;-55
2023/09/21 07:57:03;;;;;;;2.20;1.30;;;;;;;28.56;47.10;101814.66;106800;1257;22564;-55
2023/09/21 07:59:31;;;;;;;2.20;1.40;;;;;;;28.57;47.17;101815.30;107242;1256;22656;-55
2023/09/21 08:02:00;;;;;;;2.80;1.40;;;;;;;28.58;47.21;101815.83;106657;1273;25392;-54
2023/09/21 08:04:28;;;;;;;3.50;1.70;;;;;;;28.60;47.13;101818.86;107036;1253;24443;-55
2023/09/21 08:06:56;;;;;;;2.50;1.30;;;;;;;28.61;47.16;101818.02;106757;1257;22611;-54
2023/09/21 08:09:24;;;;;;;1.80;1.60;;;;;;;28.62;46.86;101816.52;106820;1256;22522;-55
2023/09/21 08:12:00;;;;;;;2.90;1.50;;;;;;;28.61;46.95;101821.24;106760;1269;23890;-55
2023/09/21 08:14:34;;;;;;;1.70;1.50;;;;;;;28.61;46.90;101820.67;106081;1274;23438;-56
2023/09/21 08:17:02;;;;;;;1.50;1.40;;;;;;;28.60;46.13;101821.73;106427;1279;22545;-55
2023/09/21 08:19:30;;;;;;;1.70;1.50;;;;;;;28.57;46.22;101818.02;106737;1272;25268;-55
2023/09/21 08:21:58;;;;;;;1.60;1.50;;;;;;;28.59;46.38;101819.25;106514;1273;22534;-55
2023/09/21 08:24:26;;;;;;;1.40;1.30;;;;;;;28.61;46.03;101815.48;106523;1261;25346;-55
2023/09/21 08:26:56;;;;;;;1.70;1.50;;;;;;;28.62;45.84;101816.33;106434;1255;22528;-55
2023/09/21 08:29:24;;;;;;;3.30;1.70;;;;;;;28.64;45.59;101816.67;106749;1273;22537;-55
2023/09/21 08:31:53;;;;;;;3.70;1.40;;;;;;;28.65;45.57;101816.94;106309;1258;22540;-55
2023/09/21 08:34:21;;;;;;;1.30;1.20;;;;;;;28.67;45.43;101817.76;106328;1273;25596;-56
2023/09/21 08:36:49;;;;;;;1.90;1.40;;;;;;;28.69;45.32;101814.54;106155;1274;25331;-55
2023/09/21 08:39:17;;;;;;;2.50;1.50;;;;;;;28.67;45.25;101813.05;106219;1272;25372;-55
2023/09/21 08:41:49;;;;;;;1.90;1.50;;;;;;;28.69;45.23;101816.45;106348;1256;22549;-55
2023/09/21 08:44:17;;;;;;;1.60;1.50;;;;;;;28.73;44.27;101817.54;106319;1277;22562;-55
2023/09/21 08:46:46;;;;;;;2.00;1.70;;;;;;;28.75;43.35;101816.66;106658;1269;24353;-55
2023/09/21 08:49:14;;;;;;;1.70;1.50;;;;;;;28.77;42.73;101812.60;105980;1275;1003021;-56
2023/09/21 08:51:44;;;;;;;3.00;1.80;;;;;;;28.79;42.71;101816.93;106617;1272;22536;-55
2023/09/21 08:54:13;;;;;;;3.80;1.60;;;;;;;28.82;42.77;101818.23;107328;1256;24473;-56
2023/09/21 08:56:42;;;;;;;1.50;1.30;;;;;;;28.85;42.67;101817.95;107617;1261;22543;-53
2023/09/21 08:59:09;;;;;;;1.50;1.40;;;;;;;28.89;42.58;101817.88;107072;1269;22527;-57
2023/09/21 09:01:37;;;;;;;1.80;1.60;;;;;;;28.91;42.62;101818.57;106920;1251;25346;-57
2023/09/21 09:04:06;;;;;;;2.20;2.00;;;;;;;28.93;42.79;101819.65;106765;1260;25290;-56
2023/09/21 09:06:34;;;;;;;1.80;1.70;;;;;;;28.97;42.53;101815.05;106910;1254;22555;-55
2023/09/21 09:09:02;;;;;;;2.10;1.60;;;;;;;29.02;42.46;101815.92;107102;1260;25320;-55
2023/09/21 09:11:40;;;;;;;2.70;1.70;;;;;;;29.05;42.42;101814.80;107047;1267;22546;-55
2023/09/21 09:14:17;;;;;;;2.00;1.80;;;;;;;29.07;42.30;101812.33;106893;1264;25226;-54
2023/09/21 09:16:46;;;;;;;4.90;2.00;;;;;;;29.06;42.27;101813.64;106849;1264;25325;-55
2023/09/21 09:19:14;;;;;;;2.90;1.80;;;;;;;29.14;42.21;101816.92;106867;1260;22767;-54
2023/09/21 09:21:42;;;;;;;4.70;2.20;;;;;;;29.20;41.96;101815.17;106969;1251;24256;-55
2023/09/21 09:24:12;;;;;;;1.90;1.60;;;;;;;29.22;42.08;101815.55;107080;1267;22532;-55
2023/09/21 09:26:41;;;;;;;2.30;2.00;;;;;;;29.25;41.99;101809.88;106807;1275;22536;-56
2023/09/21 09:29:12;;;;;;;2.00;1.60;;;;;;;29.26;42.00;101813.37;106518;1259;22557;-55
2023/09/21 09:31:41;;;;;;;1.70;1.30;;;;;;;29.28;41.72;101812.88;106909;1256;22540;-55
2023/09/21 09:34:16;;;;;;;2.00;1.70;;;;;;;29.32;41.76;101814.14;106875;1269;24282;-55
2023/09/21 09:36:49;;;;;;;1.50;1.30;;;;;;;29.37;41.68;101817.48;106918;1272;22522;-55
2023/09/21 09:42:43;;;;;;;3.70;1.80;;;;;;;29.46;41.60;101814.05;103822;1298;545037;-56
2023/09/21 09:45:19;;;;;;;6.00;1.90;;;;;;;29.47;41.87;101811.20;106089;1272;22555;-55
2023/09/21 09:51:53;;;;;;;1.50;1.40;;;;;;;29.56;41.58;101816.69;106365;1284;22539;-57
2023/09/21 09:54:24;;;;;;;4.40;1.80;;;;;;;29.58;41.51;101816.56;105628;1288;25365;-58
2023/09/21 09:56:52;;;;;;;2.40;1.70;;;;;;;29.64;41.51;101816.58;105685;1283;342036;-58
2023/09/21 09:59:20;;;;;;;1.80;1.60;;;;;;;29.66;41.23;101816.72;105945;1282;22538;-59
2023/09/21 10:01:49;;;;;;;2.30;1.40;;;;;;;29.68;41.18;101815.84;105902;1280;22835;-57
2023/09/21 10:04:18;;;;;;;3.10;1.50;;;;;;;29.71;41.22;101814.92;106147;1280;25077;-58
2023/09/21 10:06:47;;;;;;;1.80;1.70;;;;;;;29.73;41.05;101814.75;105770;1284;22997;-58
2023/09/21 10:09:15;;;;;;;1.70;1.50;;;;;;;29.74;40.61;101812.32;106092;1280;22556;-58
2023/09/21 10:11:53;;;;;;;1.60;1.40;;;;;;;29.78;40.57;101812.55;105769;1278;24035;-59
2023/09/21 10:14:21;;;;;;;2.40;1.60;;;;;;;29.78;40.72;101812.32;105635;1288;22539;-59
2023/09/21 10:16:54;;;;;;;2.10;1.90;;;;;;;29.73;40.82;101806.65;105847;1284;22540;-59
2023/09/21 10:19:26;;;;;;;1.90;1.80;;;;;;;29.76;40.92;101808.61;105635;1284;22637;-59
2023/09/21 10:21:59;;;;;;;1.90;1.70;;;;;;;29.74;40.88;101804.98;105866;1268;22563;-59
2023/09/21 10:24:30;;;;;;;2.80;1.70;;;;;;;29.77;40.87;101797.27;105861;1281;25271;-58
2023/09/21 10:27:03;;;;;;;2.50;2.00;;;;;;;29.81;40.93;101799.58;105848;1274;22538;-59
2023/09/21 10:29:36;;;;;;;2.30;1.70;;;;;;;29.85;40.84;101798.91;105720;1288;22829;-59
2023/09/21 10:32:06;;;;;;;2.90;1.70;;;;;;;29.89;40.84;101798.15;105940;1281;25341;-59
2023/09/21 10:34:34;;;;;;;3.20;1.60;;;;;;;29.95;40.73;101797.13;105879;1281;22543;-58
2023/09/21 10:37:10;;;;;;;1.90;1.80;;;;;;;29.98;40.88;101794.46;105854;1282;25246;-59
2023/09/21 10:39:39;;;;;;;1.60;1.50;;;;;;;30.02;40.64;101788.94;105601;1272;22550;-59
2023/09/21 10:42:08;;;;;;;1.80;1.50;;;;;;;30.06;40.52;101786.48;105232;1274;25376;-58
2023/09/21 10:45:07;;;;;;;2.50;1.50;;;;;;;30.08;40.40;101782.56;105948;1281;23875;-58
2023/09/21 10:47:41;;;;;;;2.60;1.90;;;;;;;30.09;40.39;101774.39;105840;1267;22539;-58
2023/09/21 10:50:14;;;;;;;1.40;1.30;;;;;;;30.10;40.21;101765.15;105855;1281;25348;-58
2023/09/21 10:52:44;;;;;;;1.80;1.70;;;;;;;30.11;40.11;101760.58;105566;1287;22740;-59
2023/09/21 10:55:14;;;;;;;2.20;2.00;;;;;;;30.11;39.75;101756.83;105927;1265;25413;-59
2023/09/21 10:57:42;;;;;;;1.90;1.80;;;;;;;30.06;39.64;101750.08;105743;1284;22544;-59
2023/09/21 11:00:16;;;;;;;1.70;1.60;;;;;;;30.03;39.80;101749.81;105794;1283;22818;-59
2023/09/21 11:02:46;;;;;;;2.00;1.70;;;;;;;30.01;39.68;101747.86;105607;1272;22619;-58
2023/09/21 11:05:18;;;;;;;2.20;1.60;;;;;;;29.97;39.60;101746.06;105557;1282;22545;-58
2023/09/21 11:07:48;;;;;;;2.20;1.50;;;;;;;29.95;39.50;101748.42;105910;1270;25341;-58
2023/09/21 11:10:16;;;;;;;2.40;1.90;;;;;;;29.92;39.51;101749.93;105943;1281;25239;-59
2023/09/21 11:12:45;;;;;;;2.60;2.00;;;;;;;29.92;39.52;101748.38;105703;1268;22543;-58
2023/09/21 11:15:16;;;;;;;1.70;1.40;;;;;;;29.93;39.63;101746.10;105945;1268;25288;-59
2023/09/21 11:17:46;;;;;;;1.70;1.60;;;;;;;29.95;39.47;101743.95;105887;1282;25303;-59
2023/09/21 11:20:17;;;;;;;2.00;1.60;;;;;;;29.98;39.27;101746.56;105883;1281;25377;-59
2023/09/21 11:22:47;;;;;;;3.10;2.10;;;;;;;30.04;39.13;101743.70;105738;1281;22558;-58
2023/09/21 11:25:17;;;;;;;1.70;1.60;;;;;;;30.04;39.34;101737.27;106352;1278;22582;-58
2023/09/21 11:27:45;;;;;;;2.50;2.20;;;;;;;30.03;39.44;101736.29;106267;1275;25387;-59
2023/09/21 11:30:13;;;;;;;2.20;2.00;;;;;;;30.01;39.17;101731.05;106266;1258;22628;-59
2023/09/21 11:32:49;;;;;;;1.80;1.70;;;;;;;30.04;38.85;101729.39;106220;1264;25243;-59
2023/09/21 11:35:19;;;;;;;1.80;1.60;;;;;;;30.05;38.94;101728.23;106246;1262;22537;-59